sensor_id;sensor_type;location;lat;lon;timestamp;temperature;humidity
11818;DHT22;5966;52.402;5.322;2023-02-26T00:00:34;4.00;99.90
11818;DHT22;5966;52.402;5.322;2023-02-26T00:03:02;3.90;99.90
11818;DHT22;5966;52.402;5.322;2023-02-26T00:05:31;3.90;99.90
11818;DHT22;5966;52.402;5.322;2023-02-26T00:07:59;3.80;99.90
11818;DHT22;5966;52.402;5.322;2023-02-26T00:10:27;3.80;99.90
11818;DHT22;5966;52.402;5.322;2023-02-26T00:12:56;3.70;99.90
11818;DHT22;5966;52.402;5.322;2023-02-26T00:15:24;3.70;99.90
11818;DHT22;5966;52.402;5.322;2023-02-26T00:17:57;3.60;99.90
11818;DHT22;5966;52.402;5.322;2023-02-26T00:20:26;3.60;99.90
11818;DHT22;5966;52.402;5.322;2023-02-26T00:22:56;3.50;99.90
11818;DHT22;5966;52.402;5.322;2023-02-26T00:25:24;3.40;99.90
11818;DHT22;5966;52.402;5.322;2023-02-26T00:27:52;3.30;99.90
11818;DHT22;5966;52.402;5.322;2023-02-26T00:30:21;3.20;99.90
11818;DHT22;5966;52.402;5.322;2023-02-26T00:32:50;3.10;99.90
11818;DHT22;5966;52.402;5.322;2023-02-26T00:35:18;3.10;99.90
11818;DHT22;5966;52.402;5.322;2023-02-26T00:38:00;3.00;99.90
11818;DHT22;5966;52.402;5.322;2023-02-26T00:40:35;3.10;99.90
11818;DHT22;5966;52.402;5.322;2023-02-26T00:43:06;3.00;99.90
11818;DHT22;5966;52.402;5.322;2023-02-26T00:45:35;2.90;99.90
11818;DHT22;5966;52.402;5.322;2023-02-26T00:48:27;2.90;99.90
11818;DHT22;5966;52.402;5.322;2023-02-26T00:51:00;2.90;99.90
11818;DHT22;5966;52.402;5.322;2023-02-26T00:53:36;2.90;99.90
11818;DHT22;5966;52.402;5.322;2023-02-26T00:56:07;2.80;99.90
11818;DHT22;5966;52.402;5.322;2023-02-26T00:58:35;2.80;99.90
11818;DHT22;5966;52.402;5.322;2023-02-26T01:01:03;2.80;99.90
11818;DHT22;5966;52.402;5.322;2023-02-26T01:03:33;2.80;99.90
11818;DHT22;5966;52.402;5.322;2023-02-26T01:06:01;2.90;99.90
11818;DHT22;5966;52.402;5.322;2023-02-26T01:08:36;2.90;99.90
11818;DHT22;5966;52.402;5.322;2023-02-26T01:11:07;2.90;99.90
11818;DHT22;5966;52.402;5.322;2023-02-26T01:13:36;2.90;99.90
11818;DHT22;5966;52.402;5.322;2023-02-26T01:16:07;2.80;99.90
11818;DHT22;5966;52.402;5.322;2023-02-26T01:18:42;2.80;99.90
11818;DHT22;5966;52.402;5.322;2023-02-26T01:21:14;2.80;99.90
11818;DHT22;5966;52.402;5.322;2023-02-26T01:23:48;2.70;99.90
11818;DHT22;5966;52.402;5.322;2023-02-26T01:26:22;2.70;99.90
11818;DHT22;5966;52.402;5.322;2023-02-26T01:28:51;2.70;99.90
11818;DHT22;5966;52.402;5.322;2023-02-26T01:31:29;2.60;99.90
11818;DHT22;5966;52.402;5.322;2023-02-26T01:34:02;2.50;99.90
11818;DHT22;5966;52.402;5.322;2023-02-26T01:36:35;2.50;99.90
11818;DHT22;5966;52.402;5.322;2023-02-26T01:39:07;2.50;99.90
11818;DHT22;5966;52.402;5.322;2023-02-26T01:41:42;2.50;99.90
11818;DHT22;5966;52.402;5.322;2023-02-26T01:44:18;2.50;99.90
11818;DHT22;5966;52.402;5.322;2023-02-26T01:47:01;2.50;99.90
11818;DHT22;5966;52.402;5.322;2023-02-26T01:49:30;2.50;99.90
11818;DHT22;5966;52.402;5.322;2023-02-26T01:51:59;2.40;99.90
11818;DHT22;5966;52.402;5.322;2023-02-26T01:54:30;2.40;99.90
11818;DHT22;5966;52.402;5.322;2023-02-26T01:57:01;2.50;99.90
11818;DHT22;5966;52.402;5.322;2023-02-26T01:59:31;2.50;99.90
11818;DHT22;5966;52.402;5.322;2023-02-26T02:02:02;2.50;99.90
11818;DHT22;5966;52.402;5.322;2023-02-26T02:04:31;2.50;99.90
11818;DHT22;5966;52.402;5.322;2023-02-26T02:06:59;2.40;99.90
11818;DHT22;5966;52.402;5.322;2023-02-26T02:09:29;2.40;99.90
11818;DHT22;5966;52.402;5.322;2023-02-26T02:12:07;2.40;99.90
11818;DHT22;5966;52.402;5.322;2023-02-26T02:14:45;2.50;99.90
11818;DHT22;5966;52.402;5.322;2023-02-26T02:17:29;2.50;99.90
11818;DHT22;5966;52.402;5.322;2023-02-26T02:20:25;2.40;99.90
11818;DHT22;5966;52.402;5.322;2023-02-26T02:23:12;2.40;99.90
11818;DHT22;5966;52.402;5.322;2023-02-26T02:31:54;2.40;99.90
11818;DHT22;5966;52.402;5.322;2023-02-26T02:34:28;2.30;99.90
11818;DHT22;5966;52.402;5.322;2023-02-26T02:37:00;2.30;99.90
11818;DHT22;5966;52.402;5.322;2023-02-26T02:39:33;2.30;99.90
11818;DHT22;5966;52.402;5.322;2023-02-26T02:42:06;2.30;99.90
11818;DHT22;5966;52.402;5.322;2023-02-26T02:44:38;2.30;99.90
11818;DHT22;5966;52.402;5.322;2023-02-26T02:47:10;2.30;99.90
11818;DHT22;5966;52.402;5.322;2023-02-26T02:49:42;2.20;99.90
11818;DHT22;5966;52.402;5.322;2023-02-26T02:52:16;2.20;99.90
11818;DHT22;5966;52.402;5.322;2023-02-26T02:54:49;2.20;99.90
11818;DHT22;5966;52.402;5.322;2023-02-26T02:57:20;2.20;99.90
11818;DHT22;5966;52.402;5.322;2023-02-26T02:59:53;2.20;99.90
11818;DHT22;5966;52.402;5.322;2023-02-26T03:02:27;2.20;99.90
11818;DHT22;5966;52.402;5.322;2023-02-26T03:04:56;2.10;99.90
11818;DHT22;5966;52.402;5.322;2023-02-26T03:07:24;2.10;99.90
11818;DHT22;5966;52.402;5.322;2023-02-26T03:09:53;2.10;99.90
11818;DHT22;5966;52.402;5.322;2023-02-26T03:12:21;2.10;99.90
11818;DHT22;5966;52.402;5.322;2023-02-26T03:14:49;2.10;99.90
11818;DHT22;5966;52.402;5.322;2023-02-26T03:17:22;2.00;99.90
11818;DHT22;5966;52.402;5.322;2023-02-26T03:20:02;2.00;99.90
11818;DHT22;5966;52.402;5.322;2023-02-26T03:22:38;2.00;99.90
11818;DHT22;5966;52.402;5.322;2023-02-26T03:25:11;2.00;99.90
11818;DHT22;5966;52.402;5.322;2023-02-26T03:27:44;1.90;99.90
11818;DHT22;5966;52.402;5.322;2023-02-26T03:30:15;1.90;99.90
11818;DHT22;5966;52.402;5.322;2023-02-26T03:32:51;1.90;99.90
11818;DHT22;5966;52.402;5.322;2023-02-26T03:35:27;1.90;99.90
11818;DHT22;5966;52.402;5.322;2023-02-26T03:38:05;1.90;99.90
11818;DHT22;5966;52.402;5.322;2023-02-26T03:40:38;1.80;99.90
11818;DHT22;5966;52.402;5.322;2023-02-26T03:43:12;1.80;99.90
11818;DHT22;5966;52.402;5.322;2023-02-26T03:45:47;1.80;99.90
11818;DHT22;5966;52.402;5.322;2023-02-26T03:48:19;1.70;99.90
11818;DHT22;5966;52.402;5.322;2023-02-26T03:50:53;1.70;99.90
11818;DHT22;5966;52.402;5.322;2023-02-26T03:53:28;1.70;99.90
11818;DHT22;5966;52.402;5.322;2023-02-26T03:56:05;1.60;99.90
11818;DHT22;5966;52.402;5.322;2023-02-26T03:58:36;1.60;99.90
11818;DHT22;5966;52.402;5.322;2023-02-26T04:01:10;1.60;99.90
11818;DHT22;5966;52.402;5.322;2023-02-26T04:03:49;1.60;99.90
11818;DHT22;5966;52.402;5.322;2023-02-26T04:06:22;1.60;99.90
11818;DHT22;5966;52.402;5.322;2023-02-26T04:08:51;1.60;99.90
11818;DHT22;5966;52.402;5.322;2023-02-26T04:11:21;1.60;99.90
11818;DHT22;5966;52.402;5.322;2023-02-26T04:13:51;1.60;99.90
11818;DHT22;5966;52.402;5.322;2023-02-26T04:16:20;1.50;99.90
11818;DHT22;5966;52.402;5.322;2023-02-26T04:18:49;1.50;99.90
11818;DHT22;5966;52.402;5.322;2023-02-26T04:21:21;1.50;99.90
11818;DHT22;5966;52.402;5.322;2023-02-26T04:23:51;1.50;99.90
11818;DHT22;5966;52.402;5.322;2023-02-26T04:26:52;1.50;99.90
11818;DHT22;5966;52.402;5.322;2023-02-26T04:29:21;1.40;99.90
11818;DHT22;5966;52.402;5.322;2023-02-26T04:31:50;1.40;99.90
11818;DHT22;5966;52.402;5.322;2023-02-26T04:34:23;1.30;99.90
11818;DHT22;5966;52.402;5.322;2023-02-26T04:36:55;1.30;99.90
11818;DHT22;5966;52.402;5.322;2023-02-26T04:39:23;1.30;99.90
11818;DHT22;5966;52.402;5.322;2023-02-26T04:41:52;1.30;99.90
11818;DHT22;5966;52.402;5.322;2023-02-26T04:44:20;1.20;99.90
11818;DHT22;5966;52.402;5.322;2023-02-26T04:46:49;1.20;99.90
11818;DHT22;5966;52.402;5.322;2023-02-26T04:49:18;1.20;99.90
11818;DHT22;5966;52.402;5.322;2023-02-26T04:51:47;1.20;99.90
11818;DHT22;5966;52.402;5.322;2023-02-26T04:54:23;1.20;99.90
11818;DHT22;5966;52.402;5.322;2023-02-26T04:56:53;1.20;99.90
11818;DHT22;5966;52.402;5.322;2023-02-26T04:59:21;1.20;99.90
11818;DHT22;5966;52.402;5.322;2023-02-26T05:01:50;1.20;99.90
11818;DHT22;5966;52.402;5.322;2023-02-26T05:04:18;1.20;99.90
11818;DHT22;5966;52.402;5.322;2023-02-26T05:06:46;1.20;99.90
11818;DHT22;5966;52.402;5.322;2023-02-26T05:09:16;1.20;99.90
11818;DHT22;5966;52.402;5.322;2023-02-26T05:11:46;1.20;99.90
11818;DHT22;5966;52.402;5.322;2023-02-26T05:14:17;1.20;99.90
11818;DHT22;5966;52.402;5.322;2023-02-26T05:16:45;1.30;99.90
11818;DHT22;5966;52.402;5.322;2023-02-26T05:19:15;1.30;99.90
11818;DHT22;5966;52.402;5.322;2023-02-26T05:21:59;1.30;99.90
11818;DHT22;5966;52.402;5.322;2023-02-26T05:24:47;1.30;99.90
11818;DHT22;5966;52.402;5.322;2023-02-26T05:27:16;1.30;99.90
11818;DHT22;5966;52.402;5.322;2023-02-26T05:29:45;1.20;99.90
11818;DHT22;5966;52.402;5.322;2023-02-26T05:32:13;1.20;99.90
11818;DHT22;5966;52.402;5.322;2023-02-26T05:34:41;1.20;99.90
11818;DHT22;5966;52.402;5.322;2023-02-26T05:37:09;1.20;99.90
11818;DHT22;5966;52.402;5.322;2023-02-26T05:39:37;1.20;99.90
11818;DHT22;5966;52.402;5.322;2023-02-26T05:42:07;1.30;99.90
11818;DHT22;5966;52.402;5.322;2023-02-26T05:44:37;1.30;99.90
11818;DHT22;5966;52.402;5.322;2023-02-26T05:47:06;1.20;99.90
11818;DHT22;5966;52.402;5.322;2023-02-26T05:49:36;1.20;99.90
11818;DHT22;5966;52.402;5.322;2023-02-26T05:52:04;1.20;99.90
11818;DHT22;5966;52.402;5.322;2023-02-26T05:54:32;1.20;99.90
11818;DHT22;5966;52.402;5.322;2023-02-26T05:57:00;1.20;99.90
11818;DHT22;5966;52.402;5.322;2023-02-26T05:59:28;1.20;99.90
11818;DHT22;5966;52.402;5.322;2023-02-26T06:01:57;1.20;99.90
11818;DHT22;5966;52.402;5.322;2023-02-26T06:04:25;1.20;99.90
11818;DHT22;5966;52.402;5.322;2023-02-26T06:06:54;1.20;99.90
11818;DHT22;5966;52.402;5.322;2023-02-26T06:09:22;1.20;99.90
11818;DHT22;5966;52.402;5.322;2023-02-26T06:11:50;1.10;99.90
11818;DHT22;5966;52.402;5.322;2023-02-26T06:14:18;1.10;99.90
11818;DHT22;5966;52.402;5.322;2023-02-26T06:16:46;1.10;99.90
11818;DHT22;5966;52.402;5.322;2023-02-26T06:19:15;1.10;99.90
11818;DHT22;5966;52.402;5.322;2023-02-26T06:21:43;1.10;99.90
11818;DHT22;5966;52.402;5.322;2023-02-26T06:24:11;1.10;99.90
11818;DHT22;5966;52.402;5.322;2023-02-26T06:26:39;1.10;99.90
11818;DHT22;5966;52.402;5.322;2023-02-26T06:29:07;1.10;99.90
11818;DHT22;5966;52.402;5.322;2023-02-26T06:31:35;1.10;99.90
11818;DHT22;5966;52.402;5.322;2023-02-26T06:34:03;1.00;99.90
11818;DHT22;5966;52.402;5.322;2023-02-26T06:36:32;1.00;99.90
11818;DHT22;5966;52.402;5.322;2023-02-26T06:39:00;1.10;99.90
11818;DHT22;5966;52.402;5.322;2023-02-26T06:41:28;1.10;99.90
11818;DHT22;5966;52.402;5.322;2023-02-26T06:43:56;1.00;99.90
11818;DHT22;5966;52.402;5.322;2023-02-26T06:46:24;1.00;99.90
11818;DHT22;5966;52.402;5.322;2023-02-26T06:48:52;1.00;99.90
11818;DHT22;5966;52.402;5.322;2023-02-26T06:51:20;1.00;99.90
11818;DHT22;5966;52.402;5.322;2023-02-26T06:53:50;1.00;99.90
11818;DHT22;5966;52.402;5.322;2023-02-26T06:56:18;1.00;99.90
11818;DHT22;5966;52.402;5.322;2023-02-26T06:58:48;1.00;99.90
11818;DHT22;5966;52.402;5.322;2023-02-26T07:01:16;1.00;99.90
11818;DHT22;5966;52.402;5.322;2023-02-26T07:03:44;1.00;99.90
11818;DHT22;5966;52.402;5.322;2023-02-26T07:06:13;1.00;99.90
11818;DHT22;5966;52.402;5.322;2023-02-26T07:08:55;1.00;99.90
11818;DHT22;5966;52.402;5.322;2023-02-26T07:11:23;1.00;99.90
11818;DHT22;5966;52.402;5.322;2023-02-26T07:13:51;1.10;99.90
11818;DHT22;5966;52.402;5.322;2023-02-26T07:16:19;1.10;99.90
11818;DHT22;5966;52.402;5.322;2023-02-26T07:18:47;1.10;99.90
11818;DHT22;5966;52.402;5.322;2023-02-26T07:21:15;1.20;99.90
11818;DHT22;5966;52.402;5.322;2023-02-26T07:23:42;1.20;99.90
11818;DHT22;5966;52.402;5.322;2023-02-26T07:26:12;1.20;99.90
11818;DHT22;5966;52.402;5.322;2023-02-26T07:28:40;1.30;99.90
11818;DHT22;5966;52.402;5.322;2023-02-26T07:31:08;1.30;99.90
11818;DHT22;5966;52.402;5.322;2023-02-26T07:33:36;1.30;99.90
11818;DHT22;5966;52.402;5.322;2023-02-26T07:36:05;1.40;99.90
11818;DHT22;5966;52.402;5.322;2023-02-26T07:38:33;1.40;99.90
11818;DHT22;5966;52.402;5.322;2023-02-26T07:41:01;1.40;99.90
11818;DHT22;5966;52.402;5.322;2023-02-26T07:43:31;1.50;99.90
11818;DHT22;5966;52.402;5.322;2023-02-26T07:45:58;1.50;99.90
11818;DHT22;5966;52.402;5.322;2023-02-26T07:48:27;1.60;99.90
11818;DHT22;5966;52.402;5.322;2023-02-26T07:50:55;1.70;99.90
11818;DHT22;5966;52.402;5.322;2023-02-26T07:53:23;1.80;99.90
11818;DHT22;5966;52.402;5.322;2023-02-26T07:55:51;1.90;99.90
11818;DHT22;5966;52.402;5.322;2023-02-26T07:58:19;2.00;99.90
11818;DHT22;5966;52.402;5.322;2023-02-26T08:00:48;2.10;99.90
11818;DHT22;5966;52.402;5.322;2023-02-26T08:03:18;2.20;99.90
11818;DHT22;5966;52.402;5.322;2023-02-26T08:05:46;2.30;99.90
11818;DHT22;5966;52.402;5.322;2023-02-26T08:08:14;2.40;99.90
11818;DHT22;5966;52.402;5.322;2023-02-26T08:10:42;2.50;99.90
11818;DHT22;5966;52.402;5.322;2023-02-26T08:13:10;2.50;99.90
11818;DHT22;5966;52.402;5.322;2023-02-26T08:15:38;2.60;99.90
11818;DHT22;5966;52.402;5.322;2023-02-26T08:18:11;2.60;99.90
11818;DHT22;5966;52.402;5.322;2023-02-26T08:20:39;2.60;99.90
11818;DHT22;5966;52.402;5.322;2023-02-26T08:23:07;2.70;99.90
11818;DHT22;5966;52.402;5.322;2023-02-26T08:25:35;2.80;99.90
11818;DHT22;5966;52.402;5.322;2023-02-26T08:28:03;2.90;99.90
11818;DHT22;5966;52.402;5.322;2023-02-26T08:30:31;2.90;99.90
11818;DHT22;5966;52.402;5.322;2023-02-26T08:32:59;3.00;99.90
11818;DHT22;5966;52.402;5.322;2023-02-26T08:35:28;3.00;99.90
11818;DHT22;5966;52.402;5.322;2023-02-26T08:37:56;3.10;99.90
11818;DHT22;5966;52.402;5.322;2023-02-26T08:40:24;3.20;99.90
11818;DHT22;5966;52.402;5.322;2023-02-26T08:42:52;3.20;99.90
11818;DHT22;5966;52.402;5.322;2023-02-26T08:45:20;3.20;99.90
11818;DHT22;5966;52.402;5.322;2023-02-26T08:47:48;3.30;99.90
11818;DHT22;5966;52.402;5.322;2023-02-26T08:50:23;3.30;99.90
11818;DHT22;5966;52.402;5.322;2023-02-26T08:52:52;3.40;99.90
11818;DHT22;5966;52.402;5.322;2023-02-26T08:55:21;3.40;99.90
11818;DHT22;5966;52.402;5.322;2023-02-26T08:57:49;3.40;99.90
11818;DHT22;5966;52.402;5.322;2023-02-26T09:00:17;3.40;99.90
11818;DHT22;5966;52.402;5.322;2023-02-26T09:02:45;3.40;99.90
11818;DHT22;5966;52.402;5.322;2023-02-26T09:05:14;3.40;99.90
11818;DHT22;5966;52.402;5.322;2023-02-26T09:07:42;3.40;99.90
11818;DHT22;5966;52.402;5.322;2023-02-26T09:10:12;3.50;99.90
11818;DHT22;5966;52.402;5.322;2023-02-26T09:12:41;3.40;99.90
11818;DHT22;5966;52.402;5.322;2023-02-26T09:15:10;3.40;99.90
11818;DHT22;5966;52.402;5.322;2023-02-26T09:17:40;3.30;99.90
11818;DHT22;5966;52.402;5.322;2023-02-26T09:20:10;3.30;99.90
11818;DHT22;5966;52.402;5.322;2023-02-26T09:22:39;3.30;99.90
11818;DHT22;5966;52.402;5.322;2023-02-26T09:25:08;3.40;99.90
11818;DHT22;5966;52.402;5.322;2023-02-26T09:27:37;3.40;99.90
11818;DHT22;5966;52.402;5.322;2023-02-26T09:30:06;3.50;99.90
11818;DHT22;5966;52.402;5.322;2023-02-26T09:32:34;3.50;99.90
11818;DHT22;5966;52.402;5.322;2023-02-26T09:35:04;3.50;99.90
11818;DHT22;5966;52.402;5.322;2023-02-26T09:37:32;3.50;99.90
11818;DHT22;5966;52.402;5.322;2023-02-26T09:40:00;3.60;99.90
11818;DHT22;5966;52.402;5.322;2023-02-26T09:42:42;3.70;99.90
11818;DHT22;5966;52.402;5.322;2023-02-26T09:45:18;3.80;99.90
11818;DHT22;5966;52.402;5.322;2023-02-26T09:47:52;3.80;99.90
11818;DHT22;5966;52.402;5.322;2023-02-26T09:50:24;3.80;99.90
11818;DHT22;5966;52.402;5.322;2023-02-26T09:52:56;3.90;99.90
11818;DHT22;5966;52.402;5.322;2023-02-26T09:55:30;3.80;99.90
11818;DHT22;5966;52.402;5.322;2023-02-26T09:58:02;3.80;99.90
11818;DHT22;5966;52.402;5.322;2023-02-26T10:00:35;3.90;99.90
11818;DHT22;5966;52.402;5.322;2023-02-26T10:03:22;3.90;99.90
11818;DHT22;5966;52.402;5.322;2023-02-26T10:06:11;3.90;99.90
11818;DHT22;5966;52.402;5.322;2023-02-26T10:08:47;3.90;99.90
11818;DHT22;5966;52.402;5.322;2023-02-26T10:11:21;4.00;99.90
11818;DHT22;5966;52.402;5.322;2023-02-26T10:13:54;4.10;99.90
11818;DHT22;5966;52.402;5.322;2023-02-26T10:16:27;4.20;99.90
11818;DHT22;5966;52.402;5.322;2023-02-26T10:19:00;4.20;99.90
11818;DHT22;5966;52.402;5.322;2023-02-26T10:21:34;4.10;99.90
11818;DHT22;5966;52.402;5.322;2023-02-26T10:24:06;4.20;99.90
11818;DHT22;5966;52.402;5.322;2023-02-26T10:26:40;4.30;99.90
11818;DHT22;5966;52.402;5.322;2023-02-26T10:29:20;4.40;99.90
11818;DHT22;5966;52.402;5.322;2023-02-26T10:32:00;4.40;99.90
11818;DHT22;5966;52.402;5.322;2023-02-26T10:34:33;4.40;99.90
11818;DHT22;5966;52.402;5.322;2023-02-26T10:37:11;4.30;99.90
11818;DHT22;5966;52.402;5.322;2023-02-26T10:39:46;4.30;99.90
11818;DHT22;5966;52.402;5.322;2023-02-26T10:42:17;4.40;99.90
11818;DHT22;5966;52.402;5.322;2023-02-26T10:44:59;4.40;99.90
11818;DHT22;5966;52.402;5.322;2023-02-26T10:47:38;4.50;99.90
11818;DHT22;5966;52.402;5.322;2023-02-26T10:50:12;4.40;99.90
11818;DHT22;5966;52.402;5.322;2023-02-26T10:52:43;4.40;99.90
11818;DHT22;5966;52.402;5.322;2023-02-26T10:55:42;4.50;99.90
11818;DHT22;5966;52.402;5.322;2023-02-26T10:58:14;4.50;99.90
11818;DHT22;5966;52.402;5.322;2023-02-26T11:00:47;4.60;99.90
11818;DHT22;5966;52.402;5.322;2023-02-26T11:03:18;4.60;99.90
11818;DHT22;5966;52.402;5.322;2023-02-26T11:05:47;4.60;99.90
11818;DHT22;5966;52.402;5.322;2023-02-26T11:08:23;4.60;99.90
11818;DHT22;5966;52.402;5.322;2023-02-26T11:10:53;4.70;99.90
11818;DHT22;5966;52.402;5.322;2023-02-26T11:13:21;4.70;99.90
11818;DHT22;5966;52.402;5.322;2023-02-26T11:15:54;4.80;99.90
11818;DHT22;5966;52.402;5.322;2023-02-26T11:18:25;4.80;99.90
11818;DHT22;5966;52.402;5.322;2023-02-26T11:20:55;4.80;99.90
11818;DHT22;5966;52.402;5.322;2023-02-26T11:23:27;4.80;99.90
11818;DHT22;5966;52.402;5.322;2023-02-26T11:25:59;4.90;99.90
11818;DHT22;5966;52.402;5.322;2023-02-26T11:28:35;4.90;99.90
11818;DHT22;5966;52.402;5.322;2023-02-26T11:31:08;4.80;99.90
11818;DHT22;5966;52.402;5.322;2023-02-26T11:33:38;4.70;99.90
11818;DHT22;5966;52.402;5.322;2023-02-26T11:36:09;4.70;99.90
11818;DHT22;5966;52.402;5.322;2023-02-26T11:38:38;4.70;99.90
11818;DHT22;5966;52.402;5.322;2023-02-26T11:41:06;4.80;99.90
11818;DHT22;5966;52.402;5.322;2023-02-26T11:43:36;4.80;99.90
11818;DHT22;5966;52.402;5.322;2023-02-26T11:46:13;4.80;99.90
11818;DHT22;5966;52.402;5.322;2023-02-26T11:48:46;4.80;99.90
11818;DHT22;5966;52.402;5.322;2023-02-26T11:51:19;4.80;99.90
11818;DHT22;5966;52.402;5.322;2023-02-26T11:53:49;4.90;99.90
11818;DHT22;5966;52.402;5.322;2023-02-26T11:56:28;5.00;99.90
11818;DHT22;5966;52.402;5.322;2023-02-26T11:59:01;5.00;99.90
11818;DHT22;5966;52.402;5.322;2023-02-26T12:01:40;5.00;99.90
11818;DHT22;5966;52.402;5.322;2023-02-26T12:04:12;5.20;99.90
11818;DHT22;5966;52.402;5.322;2023-02-26T12:06:48;5.20;99.90
11818;DHT22;5966;52.402;5.322;2023-02-26T12:09:20;5.20;99.90
11818;DHT22;5966;52.402;5.322;2023-02-26T12:12:09;5.10;99.90
11818;DHT22;5966;52.402;5.322;2023-02-26T12:14:52;5.00;99.90
11818;DHT22;5966;52.402;5.322;2023-02-26T12:17:47;5.00;99.90
11818;DHT22;5966;52.402;5.322;2023-02-26T12:20:23;5.10;99.90
11818;DHT22;5966;52.402;5.322;2023-02-26T12:23:05;5.20;99.90
11818;DHT22;5966;52.402;5.322;2023-02-26T12:26:08;5.20;99.90
11818;DHT22;5966;52.402;5.322;2023-02-26T12:29:14;5.30;99.90
11818;DHT22;5966;52.402;5.322;2023-02-26T12:32:21;5.30;99.90
11818;DHT22;5966;52.402;5.322;2023-02-26T12:38:18;5.30;99.90
11818;DHT22;5966;52.402;5.322;2023-02-26T12:43:51;5.60;99.90
11818;DHT22;5966;52.402;5.322;2023-02-26T12:46:33;5.70;99.90
11818;DHT22;5966;52.402;5.322;2023-02-26T12:49:30;5.80;99.90
11818;DHT22;5966;52.402;5.322;2023-02-26T12:52:23;5.90;99.90
11818;DHT22;5966;52.402;5.322;2023-02-26T12:55:13;6.00;99.90
11818;DHT22;5966;52.402;5.322;2023-02-26T12:57:57;5.90;99.90
11818;DHT22;5966;52.402;5.322;2023-02-26T13:00:53;5.90;99.90
11818;DHT22;5966;52.402;5.322;2023-02-26T13:03:56;6.00;99.90
11818;DHT22;5966;52.402;5.322;2023-02-26T13:06:51;6.00;99.90
11818;DHT22;5966;52.402;5.322;2023-02-26T13:09:49;6.00;99.90
11818;DHT22;5966;52.402;5.322;2023-02-26T13:12:50;6.00;99.90
11818;DHT22;5966;52.402;5.322;2023-02-26T13:15:48;6.10;99.90
11818;DHT22;5966;52.402;5.322;2023-02-26T13:18:28;6.10;99.90
11818;DHT22;5966;52.402;5.322;2023-02-26T13:21:07;6.10;99.90
11818;DHT22;5966;52.402;5.322;2023-02-26T13:23:49;6.10;99.90
11818;DHT22;5966;52.402;5.322;2023-02-26T13:26:21;6.20;99.90
11818;DHT22;5966;52.402;5.322;2023-02-26T13:28:58;6.10;99.90
11818;DHT22;5966;52.402;5.322;2023-02-26T13:31:32;6.00;99.90
11818;DHT22;5966;52.402;5.322;2023-02-26T13:34:05;6.10;99.90
11818;DHT22;5966;52.402;5.322;2023-02-26T13:36:43;6.10;99.90
11818;DHT22;5966;52.402;5.322;2023-02-26T13:39:27;6.10;99.90
11818;DHT22;5966;52.402;5.322;2023-02-26T13:42:13;6.00;99.90
11818;DHT22;5966;52.402;5.322;2023-02-26T13:44:53;6.10;99.90
11818;DHT22;5966;52.402;5.322;2023-02-26T13:47:53;6.20;99.90
11818;DHT22;5966;52.402;5.322;2023-02-26T13:50:30;6.20;99.90
11818;DHT22;5966;52.402;5.322;2023-02-26T13:53:04;6.20;99.90
11818;DHT22;5966;52.402;5.322;2023-02-26T13:56:04;6.10;99.90
11818;DHT22;5966;52.402;5.322;2023-02-26T13:58:40;6.10;99.90
11818;DHT22;5966;52.402;5.322;2023-02-26T14:01:15;6.10;99.90
11818;DHT22;5966;52.402;5.322;2023-02-26T14:03:47;6.20;99.90
11818;DHT22;5966;52.402;5.322;2023-02-26T14:06:38;6.20;99.90
11818;DHT22;5966;52.402;5.322;2023-02-26T14:09:44;6.20;99.90
11818;DHT22;5966;52.402;5.322;2023-02-26T14:12:33;6.20;99.90
11818;DHT22;5966;52.402;5.322;2023-02-26T14:15:30;6.20;99.90
11818;DHT22;5966;52.402;5.322;2023-02-26T14:18:25;6.30;99.90
11818;DHT22;5966;52.402;5.322;2023-02-26T14:24:01;6.10;99.90
11818;DHT22;5966;52.402;5.322;2023-02-26T14:26:32;6.10;99.90
11818;DHT22;5966;52.402;5.322;2023-02-26T14:29:16;6.10;99.90
11818;DHT22;5966;52.402;5.322;2023-02-26T14:34:47;6.30;99.90
11818;DHT22;5966;52.402;5.322;2023-02-26T14:37:18;6.20;99.90
11818;DHT22;5966;52.402;5.322;2023-02-26T14:39:52;6.20;99.90
11818;DHT22;5966;52.402;5.322;2023-02-26T14:42:29;6.30;99.90
11818;DHT22;5966;52.402;5.322;2023-02-26T14:45:09;6.40;99.90
11818;DHT22;5966;52.402;5.322;2023-02-26T14:47:42;6.40;99.90
11818;DHT22;5966;52.402;5.322;2023-02-26T14:50:18;6.40;99.90
11818;DHT22;5966;52.402;5.322;2023-02-26T14:53:12;6.30;99.90
11818;DHT22;5966;52.402;5.322;2023-02-26T14:55:56;6.20;99.90
11818;DHT22;5966;52.402;5.322;2023-02-26T14:58:44;6.20;99.90
11818;DHT22;5966;52.402;5.322;2023-02-26T15:01:40;6.20;99.90
11818;DHT22;5966;52.402;5.322;2023-02-26T15:07:11;6.20;99.90
11818;DHT22;5966;52.402;5.322;2023-02-26T15:09:52;6.20;99.90
11818;DHT22;5966;52.402;5.322;2023-02-26T15:12:35;6.20;99.90
11818;DHT22;5966;52.402;5.322;2023-02-26T15:15:18;6.30;99.90
11818;DHT22;5966;52.402;5.322;2023-02-26T15:18:04;6.30;99.90
11818;DHT22;5966;52.402;5.322;2023-02-26T15:20:46;6.30;99.90
11818;DHT22;5966;52.402;5.322;2023-02-26T15:23:30;6.30;99.90
11818;DHT22;5966;52.402;5.322;2023-02-26T15:26:02;6.40;99.90
11818;DHT22;5966;52.402;5.322;2023-02-26T15:28:33;6.50;99.90
11818;DHT22;5966;52.402;5.322;2023-02-26T15:31:09;6.50;99.90
11818;DHT22;5966;52.402;5.322;2023-02-26T15:33:39;6.40;99.90
11818;DHT22;5966;52.402;5.322;2023-02-26T15:36:13;6.20;99.90
11818;DHT22;5966;52.402;5.322;2023-02-26T15:38:48;6.10;99.90
11818;DHT22;5966;52.402;5.322;2023-02-26T15:41:17;6.10;99.90
11818;DHT22;5966;52.402;5.322;2023-02-26T15:43:49;6.10;99.90
11818;DHT22;5966;52.402;5.322;2023-02-26T15:46:23;6.10;99.90
11818;DHT22;5966;52.402;5.322;2023-02-26T15:48:55;6.10;99.90
11818;DHT22;5966;52.402;5.322;2023-02-26T15:51:27;6.00;99.90
11818;DHT22;5966;52.402;5.322;2023-02-26T15:53:57;5.90;99.90
11818;DHT22;5966;52.402;5.322;2023-02-26T15:56:30;5.90;99.90
11818;DHT22;5966;52.402;5.322;2023-02-26T15:59:01;5.90;99.90
11818;DHT22;5966;52.402;5.322;2023-02-26T16:01:32;5.80;99.90
11818;DHT22;5966;52.402;5.322;2023-02-26T16:04:12;5.80;99.90
11818;DHT22;5966;52.402;5.322;2023-02-26T16:06:41;5.80;99.90
11818;DHT22;5966;52.402;5.322;2023-02-26T16:09:17;5.70;99.90
11818;DHT22;5966;52.402;5.322;2023-02-26T16:11:46;5.70;99.90
11818;DHT22;5966;52.402;5.322;2023-02-26T16:14:19;5.70;99.90
11818;DHT22;5966;52.402;5.322;2023-02-26T16:16:51;5.70;99.90
11818;DHT22;5966;52.402;5.322;2023-02-26T16:19:26;5.70;99.90
11818;DHT22;5966;52.402;5.322;2023-02-26T16:21:58;5.60;99.90
11818;DHT22;5966;52.402;5.322;2023-02-26T16:24:30;5.60;99.90
11818;DHT22;5966;52.402;5.322;2023-02-26T16:27:00;5.60;99.90
11818;DHT22;5966;52.402;5.322;2023-02-26T16:29:32;5.60;99.90
11818;DHT22;5966;52.402;5.322;2023-02-26T16:32:02;5.50;99.90
11818;DHT22;5966;52.402;5.322;2023-02-26T16:34:35;5.50;99.90
11818;DHT22;5966;52.402;5.322;2023-02-26T16:37:17;5.30;99.90
11818;DHT22;5966;52.402;5.322;2023-02-26T16:39:51;5.20;99.90
11818;DHT22;5966;52.402;5.322;2023-02-26T16:42:31;5.20;99.90
11818;DHT22;5966;52.402;5.322;2023-02-26T16:45:15;5.20;99.90
11818;DHT22;5966;52.402;5.322;2023-02-26T16:47:57;5.10;99.90
11818;DHT22;5966;52.402;5.322;2023-02-26T16:50:31;5.00;99.90
11818;DHT22;5966;52.402;5.322;2023-02-26T16:53:04;5.00;99.90
11818;DHT22;5966;52.402;5.322;2023-02-26T16:55:35;5.00;99.90
11818;DHT22;5966;52.402;5.322;2023-02-26T16:58:09;4.90;99.90
11818;DHT22;5966;52.402;5.322;2023-02-26T17:00:39;4.90;99.90
11818;DHT22;5966;52.402;5.322;2023-02-26T17:03:13;4.80;99.90
11818;DHT22;5966;52.402;5.322;2023-02-26T17:05:48;4.80;99.90